CheckWX is a tool to help pilots better visualize weather data.  It is not intended as a substitute for an official pre-flight weather briefing.

04:15:03 UTC

KCXW METAR
Cantrell Field Airport
Conway, Arkansas, USA
Current

20 mins ago

KCXW 290355Z AUTO 06009KT 10SM BKN007 OVC013 05/05 A2998 RMK A01
Observed
Jan-29 @ 03:55 UTC
Wind
  • 060° at 9 KTS
Visibility
10 SM
Flight Rules
IFR
Cloud Levels
  • Broken at 700' AGL
  • Overcast at 1,300' AGL
Temperature
C / 41°F
Dewpoint
C / 41°F
Humidity
100%
Altimeter
29.98" Hg
Pressure
1015.22 hPa
Previous

60 mins ago

KCXW 290315Z AUTO 07007KT 9SM OVC005 05/05 A2999 RMK A01
Observed
Jan-29 @ 03:15 UTC
Wind
  • 070° at 7 KTS
Visibility
9 SM
Flight Rules
IFR
Cloud Levels
  • Overcast at 500' AGL
Temperature
C / 41°F
Dewpoint
C / 41°F
Humidity
100%
Altimeter
29.99" Hg
Pressure
1015.62 hPa
Previous

1 hour ago

KCXW 290255Z AUTO 07010KT 4SM BR 05/05 A2999 RMK A01
Observed
Jan-29 @ 02:55 UTC
Wind
  • 070° at 10 KTS
Visibility
4 SM
Conditions
Mist
Temperature
C / 41°F
Dewpoint
C / 41°F
Humidity
100%
Altimeter
29.99" Hg
Pressure
1015.62 hPa